Time;durP1;ratioP1;P1;durP2;ratioP2;P2;SDS_P1;SDS_P2;PMS_P1;PMS_P2;Temp;Humidity;BMP_temperature;BMP_pressure;BME280_temperature;BME280_humidity;BME280_pressure;Samples;Min_cycle;Max_cycle;Signal;HPM_P1;HPM_P2
2023/07/15 00:02:01;;;;;;;3.60;2.15;;;;;;;24.00;44.35;100299.41;5236594;28;20494;-75
2023/07/15 00:04:34;;;;;;;6.85;2.28;;;;;;;24.04;44.12;100314.03;5236070;28;20073;-72
2023/07/15 00:07:05;;;;;;;5.90;2.45;;;;;;;23.92;44.08;100317.25;5236374;28;20107;-76
2023/07/15 00:09:38;;;;;;;6.45;2.85;;;;;;;23.91;44.08;100312.91;5223417;28;20025;-73
2023/07/15 00:12:10;;;;;;;9.45;2.40;;;;;;;23.91;43.83;100306.75;5235936;28;20084;-77
2023/07/15 00:14:41;;;;;;;6.18;2.47;;;;;;;23.86;44.20;100304.63;5218533;28;20064;-75
2023/07/15 00:17:13;;;;;;;5.22;2.10;;;;;;;23.92;43.75;100305.72;5236329;28;20053;-78
2023/07/15 00:19:45;;;;;;;8.68;2.67;;;;;;;23.87;44.04;100305.47;5222295;28;20057;-77
2023/07/15 00:22:16;;;;;;;12.82;3.15;;;;;;;23.84;43.98;100314.72;5236503;28;20068;-74
2023/07/15 00:24:47;;;;;;;7.75;2.22;;;;;;;23.79;44.50;100299.22;5236152;28;20547;-77
2023/07/15 00:27:18;;;;;;;6.57;2.65;;;;;;;23.86;43.69;100309.97;5235176;28;20064;-77
2023/07/15 00:29:50;;;;;;;8.40;2.28;;;;;;;23.64;44.67;100295.81;5218274;28;20472;-78
2023/07/15 00:32:21;;;;;;;6.07;2.50;;;;;;;23.75;43.87;100297.16;5236219;28;20052;-77
2023/07/15 00:34:52;;;;;;;4.10;2.17;;;;;;;23.66;44.52;100299.97;5235284;28;20111;-75
2023/07/15 00:37:24;;;;;;;6.60;2.47;;;;;;;23.69;44.42;100312.09;5236459;28;20021;-74
2023/07/15 00:39:55;;;;;;;4.07;2.17;;;;;;;23.76;44.24;100310.31;5235985;28;20025;-77
2023/07/15 00:43:00;;;;;;;4.18;1.92;;;;;;;23.88;44.07;100309.78;5234319;28;20538;-71
2023/07/15 00:45:31;;;;;;;;;;;;;;;24.20;43.18;100317.44;5221018;28;20025;-75
2023/07/15 00:48:16;;;;;;;4.26;1.74;;;;;;;23.81;43.97;100312.41;5235827;28;19920;-73
2023/07/15 00:50:48;;;;;;;4.55;2.20;;;;;;;23.62;44.69;100320.06;5235865;28;20060;-74
2023/07/15 00:53:19;;;;;;;3.72;1.75;;;;;;;23.62;44.77;100316.56;5235628;28;20052;-74
2023/07/15 00:55:51;;;;;;;6.50;2.10;;;;;;;23.54;44.77;100314.88;5234919;28;20033;-76
2023/07/15 00:58:22;;;;;;;3.33;2.03;;;;;;;23.58;44.83;100320.66;5234678;28;20555;-75
2023/07/15 01:00:54;;;;;;;5.60;2.10;;;;;;;23.63;44.39;100316.41;5235286;28;20033;-76
2023/07/15 01:03:25;;;;;;;7.38;2.92;;;;;;;23.60;44.66;100315.94;5235190;28;20069;-73
2023/07/15 01:05:56;;;;;;;9.50;2.30;;;;;;;23.50;45.02;100309.06;5234422;28;20034;-75
2023/07/15 01:08:28;;;;;;;4.90;2.13;;;;;;;23.48;44.80;100315.59;5271442;23;20428;-76
2023/07/15 01:10:59;;;;;;;9.23;1.90;;;;;;;23.38;44.74;100300.72;5254618;28;20024;-75
2023/07/15 01:13:30;;;;;;;7.03;2.22;;;;;;;23.41;45.21;100318.22;5253451;28;20062;-76
2023/07/15 01:16:02;;;;;;;4.72;2.10;;;;;;;23.33;45.18;100320.00;5256284;28;20114;-76
2023/07/15 01:18:33;;;;;;;7.55;2.22;;;;;;;23.25;46.50;100325.44;5256703;28;20090;-76
2023/07/15 01:21:05;;;;;;;6.17;1.93;;;;;;;23.35;45.45;100330.47;5256057;28;20036;-76
2023/07/15 01:23:36;;;;;;;8.65;1.95;;;;;;;23.37;45.20;100331.09;5256020;28;20032;-72
2023/07/15 01:26:08;;;;;;;5.07;1.87;;;;;;;23.26;45.46;100315.59;5254353;28;20079;-77
2023/07/15 01:28:39;;;;;;;7.87;2.23;;;;;;;23.19;45.81;100316.34;5255373;28;20016;-77
2023/07/15 01:31:13;;;;;;;5.70;2.50;;;;;;;23.11;46.51;100316.44;5256746;28;20175;-77
2023/07/15 01:33:44;;;;;;;2.83;1.83;;;;;;;23.21;45.85;100324.97;5255599;28;20033;-77
2023/07/15 01:36:16;;;;;;;7.60;2.33;;;;;;;23.18;45.75;100325.38;5255457;28;20059;-72
2023/07/15 01:38:48;;;;;;;4.73;2.40;;;;;;;23.25;45.48;100320.09;5255228;28;20029;-76
2023/07/15 01:41:19;;;;;;;6.63;2.20;;;;;;;23.09;46.06;100326.50;5254463;28;20068;-76
2023/07/15 01:43:50;;;;;;;10.93;2.25;;;;;;;23.16;46.30;100319.38;5268444;28;20057;-76
2023/07/15 01:46:21;;;;;;;5.40;2.13;;;;;;;22.88;47.49;100324.63;5255476;28;20025;-77
2023/07/15 01:48:53;;;;;;;7.25;2.38;;;;;;;23.09;46.74;100331.84;5254010;28;20025;-75
2023/07/15 01:51:25;;;;;;;6.60;1.73;;;;;;;23.07;46.80;100331.22;5256326;28;20110;-77
2023/07/15 01:53:56;;;;;;;6.40;1.70;;;;;;;22.82;47.60;100323.50;5255654;28;20029;-73
2023/07/15 01:56:28;;;;;;;7.70;2.23;;;;;;;23.03;47.09;100333.41;5254642;28;20024;-77
2023/07/15 01:58:59;;;;;;;4.87;2.20;;;;;;;22.98;47.56;100335.00;5255900;28;20020;-76
2023/07/15 02:01:31;;;;;;;7.47;2.00;;;;;;;22.83;47.69;100342.00;5255313;28;20021;-77
2023/07/15 02:04:03;;;;;;;3.47;1.87;;;;;;;22.48;50.99;100345.22;5255453;28;20071;-76
2023/07/15 02:06:34;;;;;;;5.90;2.10;;;;;;;22.66;49.05;100349.38;5254464;28;20017;-77
2023/07/15 02:09:07;;;;;;;3.30;1.90;;;;;;;22.48;50.94;100352.41;5254595;28;20181;-73
2023/07/15 02:11:39;;;;;;;7.27;2.07;;;;;;;22.38;51.19;100341.19;5253033;28;20025;-77
2023/07/15 02:14:10;;;;;;;3.57;1.90;;;;;;;22.32;51.25;100343.56;5255313;28;20032;-75
2023/07/15 02:16:41;;;;;;;4.73;2.80;;;;;;;22.65;48.96;100347.75;5254887;28;20029;-75
2023/07/15 02:19:13;;;;;;;8.67;2.40;;;;;;;22.52;50.18;100347.50;5254015;28;20510;-76
2023/07/15 02:21:45;;;;;;;4.47;1.87;;;;;;;22.30;50.42;100340.25;5252921;28;20122;-76
2023/07/15 02:24:16;;;;;;;3.80;1.67;;;;;;;22.38;50.32;100343.84;5254337;28;20507;-77
2023/07/15 02:26:47;;;;;;;6.60;1.53;;;;;;;22.52;50.41;100351.00;5258611;28;20423;-77
2023/07/15 02:29:19;;;;;;;5.53;2.53;;;;;;;22.45;49.39;100353.59;5264172;28;20017;-76
2023/07/15 02:31:50;;;;;;;10.80;2.00;;;;;;;22.20;52.17;100353.81;5265742;28;20028;-73
2023/07/15 02:34:21;;;;;;;4.33;1.73;;;;;;;22.45;50.67;100345.56;5257941;28;20021;-77
2023/07/15 02:36:52;;;;;;;7.57;2.03;;;;;;;22.03;53.13;100357.69;5253632;28;20021;-75
2023/07/15 02:39:24;;;;;;;7.20;2.27;;;;;;;22.32;51.18;100343.56;5252726;28;20104;-76
2023/07/15 02:41:55;;;;;;;3.93;2.30;;;;;;;22.36;51.00;100338.66;5252650;28;20028;-75
2023/07/15 02:44:27;;;;;;;8.10;2.23;;;;;;;22.04;53.18;100351.31;5252936;28;20025;-75
2023/07/15 02:46:58;;;;;;;4.00;1.80;;;;;;;21.88;54.39;100348.63;5253249;28;20104;-76
2023/07/15 02:49:29;;;;;;;6.80;2.10;;;;;;;21.99;53.55;100352.69;5251985;28;20108;-77
2023/07/15 02:52:01;;;;;;;7.17;2.70;;;;;;;21.65;55.53;100337.94;5253599;28;20021;-76
2023/07/15 02:54:32;;;;;;;5.03;2.27;;;;;;;21.63;56.56;100346.09;5241874;28;20025;-76
2023/07/15 02:57:04;;;;;;;8.40;1.93;;;;;;;21.68;55.77;100342.91;5252316;28;20045;-75
2023/07/15 02:59:35;;;;;;;8.57;2.63;;;;;;;21.60;55.82;100340.31;5253114;28;20017;-75
2023/07/15 03:02:06;;;;;;;4.67;1.90;;;;;;;21.59;55.83;100341.31;5252870;28;20029;-72
2023/07/15 03:04:38;;;;;;;6.90;1.97;;;;;;;21.62;55.40;100344.47;5251977;28;20021;-75
2023/07/15 03:07:12;;;;;;;12.17;3.00;;;;;;;21.49;55.74;100339.72;5252924;28;20037;-73
2023/07/15 03:09:44;;;;;;;7.10;2.07;;;;;;;21.58;56.17;100343.16;5252798;28;20124;-73
2023/07/15 03:12:17;;;;;;;6.57;2.07;;;;;;;21.43;57.37;100343.09;5252806;28;21066;-73
2023/07/15 03:14:48;;;;;;;4.07;2.00;;;;;;;21.33;58.23;100340.63;5252736;28;20029;-74
2023/07/15 03:17:19;;;;;;;6.30;2.13;;;;;;;21.21;58.95;100342.03;5253261;28;20062;-74
2023/07/15 03:19:51;;;;;;;7.67;2.30;;;;;;;21.23;59.21;100340.88;5255901;28;20032;-74
2023/07/15 03:22:22;;;;;;;5.20;2.20;;;;;;;21.33;58.21;100342.50;5255391;28;20028;-75
2023/07/15 03:24:54;;;;;;;4.50;2.10;;;;;;;21.09;59.67;100339.78;5256869;28;20635;-73
2023/07/15 03:27:25;;;;;;;7.90;2.57;;;;;;;20.93;60.74;100340.66;5255996;28;20079;-75
2023/07/15 03:29:56;;;;;;;4.60;2.17;;;;;;;20.92;60.66;100339.00;5255947;28;20119;-74
2023/07/15 03:32:28;;;;;;;7.10;2.37;;;;;;;21.09;60.68;100339.78;5257089;28;20056;-74
2023/07/15 03:34:59;;;;;;;8.97;2.30;;;;;;;20.92;61.31;100344.31;5256644;28;20054;-74
2023/07/15 03:37:32;;;;;;;3.80;2.00;;;;;;;20.80;62.46;100342.03;5256224;28;20025;-74
2023/07/15 03:40:13;;;;;;;7.93;2.57;;;;;;;20.89;62.03;100340.16;5256844;28;20025;-75
2023/07/15 03:42:44;;;;;;;8.90;2.07;;;;;;;20.77;61.96;100337.06;5255628;28;20021;-74
2023/07/15 03:45:15;;;;;;;6.17;2.17;;;;;;;21.02;61.17;100338.81;5257097;28;20580;-76
2023/07/15 03:47:47;;;;;;;3.53;2.07;;;;;;;20.94;61.59;100345.00;5256294;28;20029;-73
2023/07/15 03:50:18;;;;;;;14.13;1.93;;;;;;;21.00;61.62;100341.66;5256412;28;20499;-75
2023/07/15 03:52:49;;;;;;;3.37;2.23;;;;;;;20.91;62.35;100339.97;5256053;28;20032;-73
2023/07/15 03:55:21;;;;;;;5.50;2.00;;;;;;;20.72;63.12;100331.41;5259722;28;20479;-74
2023/07/15 03:57:52;;;;;;;5.77;2.67;;;;;;;20.60;64.25;100332.78;5236658;28;20082;-72
2023/07/15 04:00:23;;;;;;;6.03;2.30;;;;;;;20.79;62.20;100339.53;5252053;28;20041;-73
2023/07/15 04:02:55;;;;;;;8.03;1.90;;;;;;;20.84;62.42;100331.88;5255352;28;20032;-72
2023/07/15 04:05:28;;;;;;;7.43;2.23;;;;;;;20.67;63.39;100336.41;5250439;28;20028;-73
2023/07/15 04:08:00;;;;;;;5.25;2.25;;;;;;;20.89;61.92;100339.34;5248851;28;20628;-74
2023/07/15 04:10:31;;;;;;;5.43;1.87;;;;;;;20.75;64.62;100336.38;5254796;28;20103;-74
2023/07/15 04:13:03;;;;;;;7.37;2.00;;;;;;;20.91;60.66;100337.31;5254628;28;20059;-74
2023/07/15 04:15:34;;;;;;;6.37;2.03;;;;;;;20.94;60.24;100331.72;5253605;28;20035;-73
2023/07/15 04:18:05;;;;;;;4.47;2.13;;;;;;;20.88;60.86;100330.53;5249520;28;20021;-76
2023/07/15 04:20:37;;;;;;;4.90;2.03;;;;;;;21.00;61.71;100336.31;5245982;28;20529;-75
2023/07/15 04:23:08;;;;;;;4.73;2.47;;;;;;;20.91;60.13;100332.84;5251326;28;20067;-76
2023/07/15 04:25:39;;;;;;;10.40;2.40;;;;;;;20.74;63.55;100336.56;5254645;28;20025;-73
2023/07/15 04:28:10;;;;;;;10.70;2.57;;;;;;;21.09;59.34;100333.63;5251600;28;20482;-75
2023/07/15 04:30:42;;;;;;;5.90;2.63;;;;;;;20.97;62.53;100343.81;5254287;28;20033;-73
2023/07/15 04:33:15;;;;;;;5.53;1.90;;;;;;;21.24;59.97;100342.50;5254235;28;20406;-71
2023/07/15 04:35:46;;;;;;;5.87;2.20;;;;;;;21.19;59.24;100336.88;5247036;28;20287;-71
2023/07/15 04:38:20;;;;;;;7.57;2.60;;;;;;;21.12;60.07;100354.59;5255566;28;20404;-72
2023/07/15 04:40:51;;;;;;;3.97;1.88;;;;;;;21.04;63.22;100352.78;5252782;28;20493;-72
2023/07/15 04:43:22;;;;;;;5.43;2.70;;;;;;;21.19;59.96;100349.38;5259388;28;20025;-72
2023/07/15 04:45:54;;;;;;;7.20;2.50;;;;;;;20.99;63.18;100349.81;5258031;28;20479;-72
2023/07/15 04:48:25;;;;;;;7.50;2.73;;;;;;;21.20;59.25;100351.88;5255852;28;20025;-73
2023/07/15 04:50:57;;;;;;;4.90;2.17;;;;;;;21.20;61.77;100367.84;5253469;28;21527;-73
2023/07/15 04:53:28;;;;;;;3.53;1.87;;;;;;;21.41;58.91;100363.75;5255063;28;20021;-73
2023/07/15 04:56:00;;;;;;;5.47;2.50;;;;;;;21.37;59.74;100357.94;5252947;28;20100;-73
2023/07/15 04:58:31;;;;;;;7.40;2.37;;;;;;;21.32;60.05;100367.44;5255369;28;20040;-71
2023/07/15 05:01:03;;;;;;;6.93;2.27;;;;;;;21.36;59.11;100360.78;5253229;28;20067;-72
2023/07/15 05:03:34;;;;;;;5.13;2.20;;;;;;;21.32;61.76;100354.13;5253554;28;20095;-72
2023/07/15 05:06:06;;;;;;;5.17;2.60;;;;;;;21.45;59.15;100354.38;5253896;28;20033;-72
2023/07/15 05:08:37;;;;;;;8.17;2.57;;;;;;;21.51;59.51;100359.00;5242276;28;20118;-72
2023/07/15 05:11:08;;;;;;;6.53;2.23;;;;;;;21.35;63.51;100359.09;5253412;28;20170;-72
2023/07/15 05:13:40;;;;;;;7.37;2.57;;;;;;;21.45;61.95;100358.91;5251721;28;20013;-72
2023/07/15 05:16:11;;;;;;;5.73;2.03;;;;;;;21.59;60.23;100359.97;5251308;28;20032;-73
2023/07/15 05:18:43;;;;;;;3.77;2.10;;;;;;;21.56;60.72;100362.97;5255091;28;20060;-72
2023/07/15 05:21:15;;;;;;;4.90;1.87;;;;;;;21.56;60.93;100362.97;5254669;28;20058;-74
2023/07/15 05:23:47;;;;;;;7.37;2.20;;;;;;;21.65;60.27;100361.91;5241254;28;20045;-73
2023/07/15 05:26:18;;;;;;;7.87;2.80;;;;;;;21.60;62.49;100354.47;5253908;28;20025;-71
2023/07/15 05:28:49;;;;;;;6.77;2.17;;;;;;;21.71;60.25;100350.53;5253731;28;20029;-72
2023/07/15 05:31:20;;;;;;;3.90;2.37;;;;;;;21.78;60.21;100363.16;5254542;28;20071;-72
2023/07/15 05:33:52;;;;;;;7.83;2.23;;;;;;;21.81;60.41;100365.50;5253596;28;20055;-72
2023/07/15 05:36:23;;;;;;;11.03;2.60;;;;;;;21.87;59.88;100370.13;5261613;28;20028;-72
2023/07/15 05:38:54;;;;;;;6.47;2.50;;;;;;;21.92;59.66;100362.44;5251935;28;20046;-72
2023/07/15 05:41:26;;;;;;;9.83;3.83;;;;;;;21.94;59.81;100362.25;5249589;28;20455;-73
2023/07/15 05:43:57;;;;;;;3.63;2.10;;;;;;;22.05;60.61;100360.97;5252546;28;20587;-72
2023/07/15 05:46:28;;;;;;;9.83;3.07;;;;;;;22.11;59.31;100363.72;5251142;28;20459;-72
2023/07/15 05:49:03;;;;;;;7.80;3.33;;;;;;;22.20;58.92;100371.69;5252588;28;20032;-72
2023/07/15 05:51:34;;;;;;;;;;;;;;;22.65;56.52;100374.44;5253748;28;20024;-72
2023/07/15 05:54:06;;;;;;;5.97;2.80;;;;;;;22.34;57.23;100380.72;5253848;28;19917;-72
2023/07/15 05:56:37;;;;;;;13.80;2.90;;;;;;;22.35;56.34;100372.53;5251645;28;20047;-73
2023/07/15 05:59:08;;;;;;;9.93;3.27;;;;;;;22.40;56.37;100371.97;5253865;28;20028;-72
2023/07/15 06:01:41;;;;;;;7.47;2.80;;;;;;;22.46;56.79;100378.44;5253436;28;20025;-74
2023/07/15 06:04:13;;;;;;;8.23;2.53;;;;;;;22.48;58.15;100374.56;5254201;28;20032;-74
2023/07/15 06:06:44;;;;;;;5.37;2.47;;;;;;;22.53;59.27;100378.53;5252460;28;20659;-72
2023/07/15 06:09:16;;;;;;;8.17;2.97;;;;;;;22.45;60.20;100374.94;5251953;28;20048;-71
2023/07/15 06:11:47;;;;;;;4.57;2.17;;;;;;;22.52;61.13;100379.53;5252295;28;20101;-73
2023/07/15 06:14:18;;;;;;;7.50;2.47;;;;;;;22.66;61.89;100392.09;5253816;28;20036;-73
2023/07/15 06:16:50;;;;;;;6.83;2.20;;;;;;;22.70;62.77;100385.38;5253361;28;20554;-73
2023/07/15 06:19:21;;;;;;;10.60;2.07;;;;;;;22.76;64.20;100377.66;5254024;28;20029;-73
2023/07/15 06:21:52;;;;;;;7.72;1.88;;;;;;;22.83;63.54;100391.91;5253668;28;20029;-72
2023/07/15 06:24:24;;;;;;;5.97;2.20;;;;;;;22.92;63.79;100388.13;5252407;28;20491;-72
2023/07/15 06:26:55;;;;;;;4.13;2.00;;;;;;;23.07;64.17;100385.41;5252385;28;20020;-72
2023/07/15 06:29:27;;;;;;;4.33;1.73;;;;;;;23.17;64.53;100381.63;5255973;28;20032;-71
2023/07/15 06:31:59;;;;;;;3.47;1.58;;;;;;;23.25;63.58;100373.50;5253073;28;20032;-72
2023/07/15 06:34:31;;;;;;;5.13;2.78;;;;;;;23.33;63.08;100384.09;5252147;28;20021;-73
2023/07/15 06:37:02;;;;;;;3.70;1.75;;;;;;;23.34;63.95;100382.25;5251083;28;20025;-73
2023/07/15 06:39:34;;;;;;;5.15;1.77;;;;;;;23.41;63.95;100388.53;5248746;28;20032;-73
2023/07/15 06:42:05;;;;;;;5.95;2.65;;;;;;;23.42;63.77;100384.81;5251342;28;20064;-73
2023/07/15 06:44:36;;;;;;;5.55;1.55;;;;;;;23.65;63.52;100381.16;5251811;28;20029;-74
2023/07/15 06:47:08;;;;;;;7.82;1.85;;;;;;;23.67;63.24;100387.16;5253749;28;20025;-73
2023/07/15 06:49:39;;;;;;;6.97;1.60;;;;;;;23.76;63.84;100381.66;5253321;28;20013;-73
2023/07/15 06:52:10;;;;;;;4.53;1.67;;;;;;;23.88;63.23;100382.81;5251267;28;20037;-73
2023/07/15 06:54:42;;;;;;;6.53;1.70;;;;;;;23.87;63.32;100380.34;5251805;28;20282;-73
2023/07/15 06:57:13;;;;;;;9.57;2.30;;;;;;;24.05;63.36;100369.19;5251755;28;20055;-72
2023/07/15 06:59:44;;;;;;;4.90;1.77;;;;;;;24.12;62.93;100367.38;5251357;28;20103;-73
2023/07/15 07:02:16;;;;;;;2.00;1.33;;;;;;;24.31;61.49;100369.59;5252156;28;20068;-72
2023/07/15 07:04:47;;;;;;;5.75;1.52;;;;;;;24.48;60.68;100383.50;5252606;28;20106;-74
2023/07/15 07:07:22;;;;;;;9.75;1.95;;;;;;;24.52;58.80;100384.78;5252822;28;20017;-71
2023/07/15 07:09:53;;;;;;;6.80;1.63;;;;;;;24.55;58.72;100371.00;5253904;28;20091;-73
2023/07/15 07:12:24;;;;;;;4.32;1.60;;;;;;;24.85;57.10;100373.41;5252750;28;20475;-73
2023/07/15 07:14:56;;;;;;;7.25;2.28;;;;;;;25.11;56.23;100379.94;5253395;28;20031;-73
2023/07/15 07:17:28;;;;;;;4.40;1.63;;;;;;;25.35;56.51;100380.41;5250263;28;20056;-73
2023/07/15 07:19:59;;;;;;;6.80;1.73;;;;;;;25.81;54.00;100377.22;5250695;28;20029;-73
2023/07/15 07:22:31;;;;;;;4.10;1.77;;;;;;;26.11;52.02;100382.19;5252978;28;20029;-74
2023/07/15 07:25:04;;;;;;;8.43;2.03;;;;;;;26.46;51.02;100390.00;5253888;28;20025;-73
2023/07/15 07:27:35;;;;;;;4.72;1.50;;;;;;;26.98;49.47;100403.72;5249567;28;20464;-73
2023/07/15 07:30:07;;;;;;;2.88;1.35;;;;;;;27.17;49.06;100393.94;5250781;28;20112;-72
2023/07/15 07:32:38;;;;;;;5.55;1.67;;;;;;;27.45;48.06;100379.31;5253692;28;20031;-73
2023/07/15 07:35:10;;;;;;;3.90;1.50;;;;;;;27.76;47.75;100388.44;5253500;28;20033;-72
2023/07/15 07:37:41;;;;;;;4.35;1.38;;;;;;;27.73;47.86;100401.50;5254044;28;20075;-73
2023/07/15 07:40:13;;;;;;;6.53;1.83;;;;;;;27.70;47.93;100397.38;5251829;28;20040;-76
2023/07/15 07:42:44;;;;;;;8.32;1.60;;;;;;;27.57;48.52;100402.81;5251948;28;20029;-73
2023/07/15 07:45:16;;;;;;;2.65;1.50;;;;;;;27.74;48.69;100398.59;5252574;28;20383;-74
2023/07/15 07:47:48;;;;;;;3.10;1.45;;;;;;;27.55;49.14;100392.28;5251325;28;20033;-74
2023/07/15 07:50:20;;;;;;;6.05;1.23;;;;;;;27.89;48.32;100387.50;5251794;28;20017;-73
2023/07/15 07:52:51;;;;;;;7.05;1.48;;;;;;;28.09;48.86;100394.59;5251136;28;20059;-73
2023/07/15 07:55:23;;;;;;;3.05;1.40;;;;;;;28.54;48.21;100410.78;5251479;28;20207;-73
2023/07/15 07:57:54;;;;;;;4.35;1.20;;;;;;;28.46;46.84;100393.03;5252206;28;20112;-73
2023/07/15 08:00:25;;;;;;;4.13;1.10;;;;;;;28.29;47.60;100387.38;5252446;28;20059;-73
2023/07/15 08:02:57;;;;;;;5.75;1.00;;;;;;;28.15;48.53;100388.31;5250733;28;20013;-73
2023/07/15 08:05:28;;;;;;;4.68;1.23;;;;;;;28.18;48.80;100399.69;5251862;28;20032;-73
2023/07/15 08:07:59;;;;;;;6.10;1.23;;;;;;;28.01;49.39;100397.56;5255278;28;20053;-73
2023/07/15 08:10:31;;;;;;;1.88;1.08;;;;;;;28.42;48.86;100406.13;5254489;28;20070;-73
2023/07/15 08:13:03;;;;;;;3.58;1.10;;;;;;;28.55;47.95;100407.88;5251942;28;20124;-72
2023/07/15 08:15:36;;;;;;;3.17;1.38;;;;;;;28.29;48.25;100403.53;5255171;28;20025;-73
2023/07/15 08:18:07;;;;;;;5.05;1.20;;;;;;;28.34;49.07;100403.69;5254898;28;20112;-75
2023/07/15 08:20:42;;;;;;;2.40;1.00;;;;;;;28.61;48.51;100406.97;5255218;28;20446;-76
2023/07/15 08:23:14;;;;;;;1.95;1.10;;;;;;;28.84;47.51;100410.03;5253299;28;20032;-72
2023/07/15 08:25:45;;;;;;;7.10;1.73;;;;;;;29.17;46.66;100413.38;5254173;28;20017;-74
2023/07/15 08:28:16;;;;;;;3.35;1.25;;;;;;;29.57;45.47;100412.84;5255349;28;20497;-74
2023/07/15 08:30:47;;;;;;;4.97;0.95;;;;;;;29.60;45.94;100414.25;5251229;28;20096;-75
2023/07/15 08:33:19;;;;;;;10.13;1.50;;;;;;;29.21;45.27;100410.03;5254169;28;20024;-73
2023/07/15 08:35:50;;;;;;;7.20;1.75;;;;;;;29.01;46.89;100410.25;5252040;28;20501;-76
2023/07/15 08:38:21;;;;;;;2.25;1.00;;;;;;;28.97;46.88;100415.28;5253934;28;20184;-76
2023/07/15 08:40:58;;;;;;;7.00;2.42;;;;;;;29.13;46.65;100418.44;5254039;28;20017;-76
2023/07/15 08:43:30;;;;;;;7.55;2.90;;;;;;;29.06;45.14;100420.38;5255261;28;20345;-75
2023/07/15 08:46:12;;;;;;;7.65;1.90;;;;;;;29.07;44.96;100435.50;5255467;28;20386;-75
2023/07/15 08:48:43;;;;;;;7.18;2.33;;;;;;;28.83;45.03;100438.88;5254685;28;20025;-75
2023/07/15 08:51:15;;;;;;;7.00;1.50;;;;;;;28.62;46.22;100442.81;5254185;28;20474;-71
2023/07/15 08:53:46;;;;;;;6.80;2.40;;;;;;;27.85;47.85;100440.13;5255277;28;20379;-74
2023/07/15 08:56:18;;;;;;;4.88;1.63;;;;;;;27.75;48.73;100448.66;5254736;28;20375;-75
2023/07/15 08:58:50;;;;;;;15.43;2.63;;;;;;;27.53;48.72;100461.56;5254989;28;20029;-74
2023/07/15 09:01:22;;;;;;;8.75;1.80;;;;;;;27.59;48.79;100467.97;5255653;28;20100;-75
2023/07/15 09:03:53;;;;;;;6.22;1.88;;;;;;;27.36;47.25;100467.47;5266141;28;20052;-74
2023/07/15 09:06:25;;;;;;;6.35;1.85;;;;;;;27.15;47.84;100465.88;5255176;28;20028;-75
2023/07/15 09:08:56;;;;;;;3.55;1.90;;;;;;;27.07;47.18;100469.66;5253123;28;20068;-72
2023/07/15 09:11:41;;;;;;;5.82;2.17;;;;;;;27.23;47.05;100470.22;5253173;28;20021;-75
2023/07/15 09:14:15;;;;;;;7.35;2.03;;;;;;;26.90;48.11;100466.53;5254297;28;20547;-74
2023/07/15 09:16:47;;;;;;;3.00;1.52;;;;;;;26.66;49.26;100469.72;5254503;28;20072;-77
2023/07/15 09:19:21;;;;;;;8.32;2.30;;;;;;;26.79;49.46;100468.03;5255035;28;20025;-77
2023/07/15 09:22:08;;;;;;;5.53;2.28;;;;;;;26.96;48.71;100457.66;5252164;28;20040;-77
2023/07/15 09:24:39;;;;;;;8.05;2.70;;;;;;;26.89;49.18;100467.59;5253032;28;20107;-77
2023/07/15 09:27:11;;;;;;;8.25;2.40;;;;;;;27.03;50.27;100463.88;5251148;28;20124;-76
2023/07/15 09:29:49;;;;;;;5.53;2.78;;;;;;;27.20;49.10;100462.56;5253102;28;20098;-78
2023/07/15 09:32:21;;;;;;;5.78;2.10;;;;;;;27.09;48.98;100466.75;5257021;28;20029;-76
2023/07/15 09:34:53;;;;;;;4.93;1.58;;;;;;;26.98;50.53;100465.50;5253138;28;20063;-75
2023/07/15 09:37:28;;;;;;;3.58;2.08;;;;;;;27.15;49.29;100479.31;5254571;28;20049;-74
2023/07/15 09:40:02;;;;;;;4.80;2.03;;;;;;;27.02;49.93;100477.50;5248960;28;20028;-76
2023/07/15 09:42:48;;;;;;;7.70;1.88;;;;;;;27.12;49.94;100474.38;5249732;28;20037;-76
2023/07/15 09:45:40;;;;;;;8.90;1.90;;;;;;;27.14;49.65;100475.81;5247340;28;20491;-77
2023/07/15 09:48:16;;;;;;;10.77;2.17;;;;;;;26.78;50.46;100477.13;5252086;28;20380;-76
2023/07/15 09:50:48;;;;;;;10.10;2.30;;;;;;;26.70;50.86;100484.38;5262048;28;20072;-76
2023/07/15 09:53:20;;;;;;;3.15;1.60;;;;;;;26.87;50.76;100500.03;5250341;28;20052;-74
2023/07/15 09:55:51;;;;;;;5.38;1.75;;;;;;;26.75;50.90;100499.84;5251640;28;20064;-73
2023/07/15 09:58:24;;;;;;;6.38;2.03;;;;;;;26.78;51.83;100507.50;5254008;28;20116;-74
2023/07/15 10:01:02;;;;;;;6.35;1.88;;;;;;;26.76;52.61;100506.88;5253075;28;20025;-74
2023/07/15 10:03:48;;;;;;;5.03;1.80;;;;;;;26.78;51.39;100510.19;5253025;28;20367;-71
2023/07/15 10:06:21;;;;;;;6.45;1.90;;;;;;;26.68;52.67;100509.78;5253144;28;20031;-73
2023/07/15 10:08:53;;;;;;;5.32;1.90;;;;;;;26.46;52.88;100492.03;5250820;28;20188;-73
2023/07/15 10:11:24;;;;;;;4.93;1.55;;;;;;;26.39;57.59;100493.88;5249317;28;20123;-72
2023/07/15 10:13:56;;;;;;;6.22;1.80;;;;;;;26.32;61.04;100501.09;5259072;28;20032;-72
2023/07/15 10:16:28;;;;;;;8.77;2.33;;;;;;;26.07;64.16;100481.03;5255260;28;20045;-73
2023/07/15 10:19:01;;;;;;;4.78;1.70;;;;;;;26.15;62.24;100477.31;5251117;28;20553;-72
2023/07/15 10:21:33;;;;;;;4.60;2.03;;;;;;;26.06;62.92;100452.53;5253529;28;20048;-72
2023/07/15 10:24:16;;;;;;;3.65;1.60;;;;;;;26.16;62.91;100468.25;5256605;28;20479;-74
2023/07/15 10:26:50;;;;;;;7.68;1.92;;;;;;;25.80;64.61;100464.06;5254821;28;20498;-73
2023/07/15 10:29:24;;;;;;;6.88;1.95;;;;;;;26.05;68.25;100475.06;5256616;28;20024;-73
2023/07/15 10:32:10;;;;;;;7.15;2.28;;;;;;;26.19;68.18;100467.00;5254247;28;20024;-72
2023/07/15 10:34:50;;;;;;;8.48;2.08;;;;;;;26.06;67.47;100471.31;5248620;28;20036;-73
2023/07/15 10:37:21;;;;;;;4.32;1.75;;;;;;;26.02;70.38;100463.91;5253014;28;20427;-72
2023/07/15 10:39:52;;;;;;;4.57;1.40;;;;;;;26.20;67.92;100472.16;5243589;28;20027;-76
2023/07/15 10:42:24;;;;;;;5.57;1.80;;;;;;;26.06;67.62;100471.31;5248995;28;20032;-74
2023/07/15 10:44:55;;;;;;;8.50;2.35;;;;;;;26.02;66.89;100474.63;5242687;28;20034;-71
2023/07/15 10:47:28;;;;;;;5.68;1.63;;;;;;;25.90;66.99;100461.84;5242697;28;20055;-71
2023/07/15 10:49:59;;;;;;;4.95;1.92;;;;;;;26.05;67.94;100480.41;5251129;28;20040;-71
2023/07/15 10:52:30;;;;;;;5.20;2.05;;;;;;;25.80;68.04;100466.75;5246899;28;20082;-70
2023/07/15 10:55:02;;;;;;;7.25;2.15;;;;;;;25.93;72.15;100465.94;5250864;28;20821;-73
2023/07/15 10:57:36;;;;;;;7.85;1.88;;;;;;;26.29;67.28;100486.22;5251428;28;20104;-73
2023/07/15 11:00:09;;;;;;;5.90;1.67;;;;;;;26.27;67.34;100492.84;5251215;28;20104;-71
2023/07/15 11:02:40;;;;;;;4.18;2.00;;;;;;;26.18;65.13;100484.97;5257050;28;20467;-72
2023/07/15 11:05:12;;;;;;;6.65;1.83;;;;;;;26.06;67.13;100479.38;5245722;28;20032;-74
2023/07/15 11:07:44;;;;;;;4.57;2.00;;;;;;;26.10;65.34;100480.63;5238406;28;20037;-73
2023/07/15 11:10:15;;;;;;;7.03;2.20;;;;;;;26.09;64.27;100484.31;5256638;28;20431;-72
2023/07/15 11:12:46;;;;;;;3.60;1.77;;;;;;;26.43;63.85;100488.91;5254382;28;20102;-74
2023/07/15 11:15:19;;;;;;;4.63;1.70;;;;;;;26.60;62.09;100475.91;5254287;28;20092;-73
2023/07/15 11:17:50;;;;;;;3.50;1.77;;;;;;;26.72;62.39;100477.97;5249451;28;20025;-71
2023/07/15 11:20:22;;;;;;;4.38;1.80;;;;;;;26.91;57.36;100481.66;5252561;28;20093;-72
2023/07/15 11:22:53;;;;;;;6.57;1.75;;;;;;;26.90;57.62;100472.75;5261414;28;20031;-71
2023/07/15 11:25:25;;;;;;;3.08;1.52;;;;;;;26.89;55.08;100470.28;5257481;28;20048;-71
2023/07/15 11:28:00;;;;;;;2.78;1.33;;;;;;;27.00;53.32;100476.88;5251288;28;20025;-73
2023/07/15 11:30:39;;;;;;;4.82;1.40;;;;;;;26.99;53.26;100472.50;5251933;28;20020;-71
2023/07/15 11:33:11;;;;;;;3.28;1.90;;;;;;;26.56;53.06;100470.13;5249359;28;20082;-74
2023/07/15 11:35:44;;;;;;;6.20;1.48;;;;;;;26.78;52.11;100456.47;5248196;28;20036;-74
2023/07/15 11:38:27;;;;;;;5.60;1.65;;;;;;;27.04;52.36;100467.38;5260524;28;20021;-73
2023/07/15 11:40:59;;;;;;;5.73;1.90;;;;;;;26.95;52.32;100466.72;5248451;28;20036;-73
2023/07/15 11:43:31;;;;;;;5.20;1.90;;;;;;;26.90;52.42;100455.78;5251939;28;20083;-74
2023/07/15 11:46:02;;;;;;;3.33;2.00;;;;;;;26.88;53.31;100439.09;5255606;28;20029;-73
2023/07/15 11:48:34;;;;;;;4.82;1.73;;;;;;;26.99;53.61;100467.97;5266141;28;20028;-72